createdAt,value
2022-08-26T00:05:22.168Z,22.19
2022-08-26T00:11:42.139Z,22.22
2022-08-26T00:18:05.142Z,22.29
2022-08-26T00:24:25.139Z,22.2
2022-08-26T00:30:48.194Z,22.1
2022-08-26T00:37:08.753Z,22.06
2022-08-26T00:43:31.170Z,22.1
2022-08-26T00:49:51.139Z,22.13
2022-08-26T00:56:14.142Z,22.12
2022-08-26T01:02:34.222Z,22.08
2022-08-26T01:08:57.143Z,22.03
2022-08-26T01:15:17.175Z,21.96
2022-08-26T01:21:40.521Z,21.89
2022-08-26T01:28:00.169Z,21.74
2022-08-26T01:34:23.143Z,21.66
2022-08-26T01:40:43.185Z,21.59
2022-08-26T01:47:06.424Z,21.67
2022-08-26T01:53:26.141Z,21.77
2022-08-26T01:59:49.178Z,21.85
2022-08-26T02:06:09.498Z,21.86
2022-08-26T02:12:32.167Z,21.84
2022-08-26T02:18:52.898Z,21.83
2022-08-26T02:25:15.168Z,21.83
2022-08-26T02:31:35.253Z,21.88
2022-08-26T02:37:58.142Z,21.85
2022-08-26T02:44:18.162Z,21.77
2022-08-26T02:50:41.141Z,21.72
2022-08-26T02:57:01.174Z,21.72
2022-08-26T03:03:24.145Z,21.69
2022-08-26T03:09:44.167Z,21.63
2022-08-26T03:16:07.202Z,21.52
2022-08-26T03:22:27.218Z,21.41
2022-08-26T03:28:50.144Z,21.37
2022-08-26T03:35:10.159Z,21.35
2022-08-26T03:41:33.154Z,21.35
2022-08-26T03:47:53.142Z,21.34
2022-08-26T03:54:16.169Z,21.31
2022-08-26T04:00:36.148Z,21.34
2022-08-26T04:06:59.143Z,21.36
2022-08-26T04:23:06.194Z,21.31
2022-08-26T04:29:26.127Z,21.33
2022-08-26T04:35:49.133Z,21.37
2022-08-26T04:42:09.172Z,21.42
2022-08-26T04:48:32.138Z,21.4
2022-08-26T04:54:52.181Z,21.37
2022-08-26T05:01:15.206Z,21.35
2022-08-26T05:07:35.142Z,21.4
2022-08-26T05:14:01.699Z,21.44
2022-08-26T05:20:19.860Z,21.43
2022-08-26T05:26:41.173Z,21.44
2022-08-26T05:33:01.160Z,21.42
2022-08-26T05:39:24.146Z,21.41
2022-08-26T05:45:46.021Z,21.45
2022-08-26T05:52:07.143Z,21.49
2022-08-26T05:58:27.178Z,21.48
2022-08-26T06:04:50.152Z,21.53
2022-08-26T06:11:10.785Z,21.56
2022-08-26T06:17:33.181Z,21.59
2022-08-26T06:23:53.147Z,21.67
2022-08-26T06:30:16.172Z,21.7
2022-08-26T06:36:36.150Z,21.73
2022-08-26T06:42:59.157Z,21.78
2022-08-26T06:49:25.675Z,21.81
2022-08-26T06:55:42.183Z,21.81
2022-08-26T07:02:02.298Z,21.9
2022-08-26T07:08:25.154Z,21.96
2022-08-26T07:14:47.383Z,21.95
2022-08-26T07:21:08.159Z,21.98
2022-08-26T07:27:28.149Z,22.08
2022-08-26T07:33:51.177Z,22.12
2022-08-26T07:40:11.200Z,22.06
2022-08-26T07:46:34.165Z,22.12
2022-08-26T07:52:54.170Z,22.25
2022-08-26T07:59:17.148Z,22.31
2022-08-26T08:05:37.199Z,22.33
2022-08-26T08:12:00.148Z,22.41
2022-08-26T08:18:20.321Z,22.4
2022-08-26T08:24:43.207Z,22.28
2022-08-26T08:31:03.374Z,22.28
2022-08-26T08:37:26.227Z,22.42
2022-08-26T08:43:46.161Z,22.44
2022-08-26T08:50:09.141Z,22.43
2022-08-26T08:56:29.168Z,22.51
2022-08-26T09:02:52.144Z,22.59
2022-08-26T09:09:12.183Z,22.6
2022-08-26T09:15:35.145Z,22.66
2022-08-26T09:21:55.143Z,22.67
2022-08-26T09:28:18.173Z,22.68
2022-08-26T09:34:38.146Z,22.81
2022-08-26T09:41:01.177Z,22.98
2022-08-26T09:47:21.156Z,23.03
2022-08-26T09:53:44.151Z,22.88
2022-08-26T10:00:04.197Z,22.85
2022-08-26T10:16:32.109Z,22.96
2022-08-26T10:22:52.167Z,22.93
2022-08-26T10:29:15.147Z,22.99
2022-08-26T10:35:35.297Z,23.02
2022-08-26T10:41:58.363Z,23.02
2022-08-26T10:48:18.254Z,22.89
2022-08-26T10:54:41.150Z,22.85
2022-08-26T11:01:01.473Z,22.83
2022-08-26T11:07:24.175Z,22.87
2022-08-26T11:13:44.138Z,22.97
2022-08-26T11:20:09.329Z,23.18
2022-08-26T11:26:27.489Z,23.36
2022-08-26T11:32:50.168Z,23.33
2022-08-26T11:39:10.325Z,23.24
2022-08-26T11:45:33.180Z,23.28
2022-08-26T11:51:53.165Z,23.44
2022-08-26T11:58:16.151Z,23.69
2022-08-26T12:04:36.242Z,23.74
2022-08-26T12:10:59.328Z,23.75
2022-08-26T12:17:19.238Z,23.7
2022-08-26T12:23:42.173Z,23.75
2022-08-26T12:30:02.143Z,24.03
2022-08-26T12:36:25.234Z,24.12
2022-08-26T12:42:45.175Z,24.41
2022-08-26T12:49:08.148Z,24.52
2022-08-26T12:55:28.183Z,24.41
2022-08-26T13:01:51.256Z,24.45
2022-08-26T13:08:12.291Z,24.47
2022-08-26T13:14:35.183Z,24.43
2022-08-26T13:20:55.148Z,24.23
2022-08-26T13:27:18.177Z,24.09
2022-08-26T13:33:38.152Z,24.04
2022-08-26T13:40:01.153Z,24.07
2022-08-26T13:46:21.307Z,24.18
2022-08-26T13:52:44.148Z,24.3
2022-08-26T13:59:04.238Z,24.27
2022-08-26T14:05:27.415Z,24.23
2022-08-26T14:11:50.787Z,24.15
2022-08-26T14:18:10.195Z,24.16
2022-08-26T14:24:30.174Z,24.17
2022-08-26T14:30:53.312Z,24.23
2022-08-26T14:37:15.350Z,24.37
2022-08-26T14:43:36.176Z,24.29
2022-08-26T14:49:56.365Z,24.3
2022-08-26T14:56:19.155Z,24.23
2022-08-26T15:02:39.257Z,24.25
2022-08-26T15:09:02.207Z,24.28
2022-08-26T15:15:22.231Z,24.17
2022-08-26T15:21:45.152Z,24
2022-08-26T15:28:05.181Z,23.89
2022-08-26T15:34:28.195Z,23.83
2022-08-26T15:40:48.154Z,23.85
2022-08-26T16:05:07.587Z,23.83
2022-08-26T16:11:27.178Z,23.79
2022-08-26T16:17:50.191Z,23.82
2022-08-26T16:24:10.170Z,23.9
2022-08-26T16:30:33.380Z,23.9
2022-08-26T16:36:53.154Z,23.89
2022-08-26T16:43:16.141Z,23.95
2022-08-26T16:49:36.471Z,23.88
2022-08-26T16:55:59.220Z,23.77
2022-08-26T17:02:19.230Z,23.7
2022-08-26T17:08:42.166Z,23.67
2022-08-26T17:15:02.190Z,23.67
2022-08-26T17:21:25.149Z,23.66
2022-08-26T17:27:45.214Z,23.57
2022-08-26T17:34:08.182Z,23.51
2022-08-26T17:40:28.238Z,23.46
2022-08-26T17:46:51.288Z,23.41
2022-08-26T17:53:12.658Z,23.35
2022-08-26T17:59:34.218Z,23.32
2022-08-26T18:05:54.155Z,23.23
2022-08-26T18:12:17.188Z,23.15
2022-08-26T18:18:37.194Z,23.05
2022-08-26T18:25:00.159Z,22.94
2022-08-26T18:31:20.250Z,22.87
2022-08-26T18:37:43.146Z,22.77
2022-08-26T18:44:03.252Z,22.71
2022-08-26T18:50:26.148Z,22.67
2022-08-26T18:56:46.142Z,22.62
2022-08-26T19:03:18.572Z,22.6
2022-08-26T19:09:29.295Z,22.57
2022-08-26T19:15:52.288Z,22.53
2022-08-26T19:22:12.169Z,22.49
2022-08-26T19:28:35.415Z,22.43
2022-08-26T19:34:55.197Z,22.39
2022-08-26T19:41:18.453Z,22.33
2022-08-26T19:47:38.182Z,22.24
2022-08-26T19:54:01.219Z,22.21
2022-08-26T20:00:21.254Z,22.21
2022-08-26T20:06:44.192Z,22.21
2022-08-26T20:13:04.182Z,22.23
2022-08-26T20:19:27.160Z,22.2
2022-08-26T20:25:47.202Z,22.06
2022-08-26T20:32:10.436Z,22.02
2022-08-26T20:38:30.163Z,22
2022-08-26T20:44:54.315Z,21.98
2022-08-26T20:51:13.199Z,21.95
2022-08-26T20:57:36.148Z,21.94
2022-08-26T21:03:56.232Z,21.9
2022-08-26T21:19:31.065Z,21.75
2022-08-26T21:25:51.164Z,21.7
2022-08-26T21:32:15.664Z,21.68
2022-08-26T21:38:34.179Z,21.59
2022-08-26T21:44:57.215Z,21.5
2022-08-26T21:51:17.171Z,21.45
2022-08-26T21:57:40.158Z,21.44
2022-08-26T22:20:37.149Z,21.17
2022-08-26T22:26:57.177Z,21.16
2022-08-26T22:33:20.223Z,21.15
2022-08-26T22:39:40.222Z,21.12
2022-08-26T22:46:03.320Z,21.07
2022-08-26T22:52:23.209Z,21.03
2022-08-26T22:58:46.192Z,20.99
2022-08-26T23:05:06.211Z,20.97
2022-08-26T23:11:29.172Z,20.93
2022-08-26T23:17:51.406Z,20.82
2022-08-26T23:24:12.205Z,20.68
2022-08-26T23:30:32.182Z,20.65
2022-08-26T23:36:55.194Z,20.61
2022-08-26T23:43:15.155Z,20.59
2022-08-26T23:49:38.236Z,20.52
2022-08-26T23:55:58.140Z,20.47
